Verin, Spain
Current Conditions -  °F | °C
As of 10:00 AM on Monday 20 Oct 2014 (Local Time) from LEVX Reporting Station
Few Clouds Few Clouds  
Wind Chill: 64°   Ceiling: Unl
Heat Index: 64°   Visibility: 6mi
Dew Point: 61°   Wind: 3mph
Humidity: 88%   Direction: 230°SW
Pressure: 30.15"   Gusts: NA
Location:  41.94°N, 7.44°W
Report Text: LEVX 200800Z 23003KT 200V260 9999 FEW030 18/16 Q1021 NOSIG
Loading
Personal Weather Stations






























Interactive Weather Map
Tropical Storm Tracking
New forecast layout! Learn more

10-Day Weather Forecast

Advertisements
Track Severe Weather on mobile